Time;durP1;ratioP1;P1;durP2;ratioP2;P2;SDS_P1;SDS_P2;PMS_P1;PMS_P2;Temp;Humidity;BMP_temperature;BMP_pressure;BME280_temperature;BME280_humidity;BME280_pressure;Samples;Min_cycle;Max_cycle;Signal;HPM_P1;HPM_P2
2023/04/24 00:01:12;;;;;;;;;;;;;;;4.83;100.00;99735.13;5054329;28;819;-65
2023/04/24 00:03:39;;;;;;;;;;;;;;;4.88;100.00;99721.13;5054187;28;819;-65
2023/04/24 00:06:07;;;;;;;;;;;;;;;4.94;100.00;99727.88;5054223;28;1957;-67
2023/04/24 00:08:35;;;;;;;;;;;;;;;4.91;100.00;99720.41;5054421;28;911;-66
2023/04/24 00:11:02;;;;;;;;;;;;;;;4.82;100.00;99717.09;5053893;28;1274;-67
2023/04/24 00:13:29;;;;;;;;;;;;;;;4.81;100.00;99710.84;5054102;28;838;-65
2023/04/24 00:15:56;;;;;;;;;;;;;;;4.92;100.00;99716.50;5053985;28;799;-66
2023/04/24 00:18:22;;;;;;;;;;;;;;;4.99;100.00;99713.06;5053933;28;827;-65
2023/04/24 00:20:49;;;;;;;;;;;;;;;5.03;100.00;99711.97;5053898;28;858;-65
2023/04/24 00:23:15;;;;;;;;;;;;;;;5.10;100.00;99712.09;5054112;28;953;-65
2023/04/24 00:25:41;;;;;;;;;;;;;;;5.19;100.00;99705.56;5053811;28;1905;-65
2023/04/24 00:28:07;;;;;;;;;;;;;;;5.31;100.00;99705.34;5053873;28;893;-67
2023/04/24 00:30:34;;;;;;;;;;;;;;;5.27;100.00;99705.31;5053698;28;831;-67
2023/04/24 00:33:00;;;;;;;;;;;;;;;5.11;100.00;99699.19;5035795;28;1185;-66
2023/04/24 00:35:26;;;;;;;;;;;;;;;4.91;100.00;99704.75;5053626;28;541;-65
2023/04/24 00:37:54;;;;;;;;;;;;;;;4.74;100.00;99696.22;5053541;28;854;-65
2023/04/24 00:40:21;;;;;;;;;;;;;;;4.61;100.00;99703.81;5053643;28;901;-65
2023/04/24 00:42:48;;;;;;;;;;;;;;;4.45;100.00;99703.94;5053522;28;1018;-67
2023/04/24 00:45:14;;;;;;;;;;;;;;;4.33;100.00;99698.63;5053494;28;1944;-67
2023/04/24 00:47:41;;;;;;;;;;;;;;;4.25;100.00;99687.56;5053371;28;811;-66
2023/04/24 00:50:08;;;;;;;;;;;;;;;4.23;100.00;99695.34;5035412;28;1266;-67
2023/04/24 00:52:34;;;;;;;;;;;;;;;4.21;100.00;99691.41;5053380;28;862;-65
2023/04/24 00:55:01;;;;;;;;;;;;;;;4.13;100.00;99697.88;5052637;28;910;-65
2023/04/24 00:57:27;;;;;;;;;;;;;;;4.05;100.00;99696.94;5053179;28;886;-65
2023/04/24 00:59:54;;;;;;;;;;;;;;;3.99;100.00;99698.38;5053261;28;1016;-65
2023/04/24 01:02:22;;;;;;;;;;;;;;;3.94;100.00;99701.41;5053108;28;799;-66
2023/04/24 01:04:50;;;;;;;;;;;;;;;3.98;100.00;99702.28;5053106;28;1949;-67
2023/04/24 01:07:20;;;;;;;;;;;;;;;4.03;100.00;99691.03;5053333;28;935;-67
2023/04/24 01:09:48;;;;;;;;;;;;;;;3.99;100.00;99687.44;5052745;28;1370;-65
2023/04/24 01:12:15;;;;;;;;;;;;;;;3.99;100.00;99688.25;5053064;28;822;-66
2023/04/24 01:14:42;;;;;;;;;;;;;;;4.03;100.00;99694.59;5052906;28;814;-65
2023/04/24 01:17:09;;;;;;;;;;;;;;;4.13;100.00;99693.19;5052786;28;896;-65
2023/04/24 01:19:35;;;;;;;;;;;;;;;4.23;100.00;99691.84;5052835;28;897;-65
2023/04/24 01:22:02;;;;;;;;;;;;;;;4.18;100.00;99701.13;5052777;28;850;-65
2023/04/24 01:24:28;;;;;;;;;;;;;;;3.99;100.00;99695.66;5052509;28;1972;-64
2023/04/24 01:26:55;;;;;;;;;;;;;;;3.97;100.00;99697.94;5052612;28;811;-65
2023/04/24 01:29:21;;;;;;;;;;;;;;;3.98;100.00;99702.28;5052609;28;814;-65
2023/04/24 01:31:48;;;;;;;;;;;;;;;4.03;100.00;99702.78;5052877;28;830;-66
2023/04/24 01:34:15;;;;;;;;;;;;;;;4.06;100.00;99698.53;5052560;28;814;-65
2023/04/24 01:36:43;;;;;;;;;;;;;;;4.06;100.00;99698.53;5052427;28;933;-65
2023/04/24 01:39:10;;;;;;;;;;;;;;;4.07;100.00;99695.41;5052452;28;802;-64
2023/04/24 01:41:36;;;;;;;;;;;;;;;4.02;100.00;99686.72;5052297;28;881;-66
2023/04/24 01:44:03;;;;;;;;;;;;;;;3.95;100.00;99687.38;5052303;28;811;-66
2023/04/24 01:46:31;;;;;;;;;;;;;;;3.98;100.00;99680.41;5052261;28;1890;-66
2023/04/24 01:48:59;;;;;;;;;;;;;;;3.93;100.00;99673.28;5052249;28;878;-64
2023/04/24 01:51:26;;;;;;;;;;;;;;;3.80;100.00;99680.06;5034277;28;1493;-64
2023/04/24 01:53:53;;;;;;;;;;;;;;;3.67;100.00;99673.94;5052018;28;803;-65
2023/04/24 01:56:20;;;;;;;;;;;;;;;3.66;100.00;99666.88;5052298;28;826;-64
2023/04/24 01:58:46;;;;;;;;;;;;;;;3.70;100.00;99672.44;5034250;28;1399;-65
2023/04/24 02:01:19;;;;;;;;;;;;;;;3.64;100.00;99669.97;5052030;28;881;-64
2023/04/24 02:03:45;;;;;;;;;;;;;;;3.62;100.00;99671.47;5051960;28;856;-64
2023/04/24 02:06:12;;;;;;;;;;;;;;;3.53;100.00;99673.63;5051760;28;1890;-66
2023/04/24 02:08:39;;;;;;;;;;;;;;;3.54;100.00;99664.28;5051364;28;910;-66
2023/04/24 02:11:05;;;;;;;;;;;;;;;3.53;100.00;99662.69;5051720;28;1216;-65
2023/04/24 02:13:32;;;;;;;;;;;;;;;3.53;100.00;99659.97;5052090;28;814;-64
2023/04/24 02:15:59;;;;;;;;;;;;;;;3.48;100.00;99652.84;5051816;28;889;-64
2023/04/24 02:18:26;;;;;;;;;;;;;;;3.41;100.00;99660.88;5051713;28;822;-64
2023/04/24 02:20:52;;;;;;;;;;;;;;;3.44;100.00;99650.03;5051643;28;909;-64
2023/04/24 02:23:18;;;;;;;;;;;;;;;3.62;100.00;99647.66;5051606;28;819;-65
2023/04/24 02:25:45;;;;;;;;;;;;;;;3.94;100.00;99657.66;5051501;28;1914;-66
2023/04/24 02:28:12;;;;;;;;;;;;;;;4.14;100.00;99648.28;5051652;28;842;-66
2023/04/24 02:30:38;;;;;;;;;;;;;;;4.23;100.00;99651.56;5051564;28;873;-66
2023/04/24 02:33:06;;;;;;;;;;;;;;;4.14;100.00;99648.28;5051506;28;811;-66
2023/04/24 02:35:32;;;;;;;;;;;;;;;4.09;100.00;99657.56;5033639;28;1522;-64
2023/04/24 02:37:59;;;;;;;;;;;;;;;3.91;100.00;99653.72;5051537;28;834;-65
2023/04/24 02:40:26;;;;;;;;;;;;;;;3.79;100.00;99643.69;5051432;28;952;-65
2023/04/24 02:42:52;;;;;;;;;;;;;;;3.73;100.00;99650.59;5051503;28;878;-66
2023/04/24 02:45:19;;;;;;;;;;;;;;;3.65;100.00;99657.88;5051309;28;1957;-66
2023/04/24 02:47:45;;;;;;;;;;;;;;;3.57;100.00;99649.91;5051357;28;847;-66
2023/04/24 02:50:12;;;;;;;;;;;;;;;3.55;100.00;99653.00;5051312;28;861;-64
2023/04/24 02:52:38;;;;;;;;;;;;;;;3.53;100.00;99647.09;5051284;28;897;-64
2023/04/24 02:55:05;;;;;;;;;;;;;;;3.54;100.00;99658.81;5051315;28;796;-64
2023/04/24 02:57:31;;;;;;;;;;;;;;;3.61;100.00;99653.50;5051390;28;790;-64
2023/04/24 02:59:57;;;;;;;;;;;;;;;3.71;100.00;99650.19;5051260;28;1047;-65
2023/04/24 03:02:24;;;;;;;;;;;;;;;3.76;100.00;99649.91;5051194;28;911;-67
2023/04/24 03:04:51;;;;;;;;;;;;;;;3.79;100.00;99653.84;5051509;28;1894;-64
2023/04/24 03:07:20;;;;;;;;;;;;;;;3.68;100.00;99661.84;5051228;28;923;-65
2023/04/24 03:09:47;;;;;;;;;;;;;;;3.63;100.00;99656.66;5050916;28;1236;-64
2023/04/24 03:12:14;;;;;;;;;;;;;;;3.63;100.00;99652.00;5051135;28;842;-65
2023/04/24 03:14:41;;;;;;;;;;;;;;;3.65;100.00;99652.44;5051103;28;904;-64
2023/04/24 03:17:08;;;;;;;;;;;;;;;3.61;100.00;99658.97;5051134;28;885;-64
2023/04/24 03:19:34;;;;;;;;;;;;;;;3.60;100.00;99651.91;5053555;28;898;-64
2023/04/24 03:22:03;;;;;;;;;;;;;;;3.60;100.00;99651.91;5054932;28;893;-65
2023/04/24 03:24:30;;;;;;;;;;;;;;;3.62;100.00;99650.41;5054907;28;1918;-64
2023/04/24 03:26:57;;;;;;;;;;;;;;;3.66;100.00;99658.69;5055018;28;826;-66
2023/04/24 03:29:25;;;;;;;;;;;;;;;3.64;100.00;99659.03;5054730;28;1061;-66
2023/04/24 03:31:51;;;;;;;;;;;;;;;3.80;100.00;99661.72;5055181;28;893;-65
2023/04/24 03:34:18;;;;;;;;;;;;;;;3.88;100.00;99668.09;5054743;28;877;-65
2023/04/24 03:36:47;;;;;;;;;;;;;;;3.94;100.00;99661.19;5054800;28;842;-64
2023/04/24 03:39:13;;;;;;;;;;;;;;;3.87;100.00;99656.38;5054665;28;908;-65
2023/04/24 03:41:40;;;;;;;;;;;;;;;3.81;100.00;99663.28;5054667;28;806;-66
2023/04/24 03:44:07;;;;;;;;;;;;;;;3.75;100.00;99664.72;5054642;28;838;-64
2023/04/24 03:46:33;;;;;;;;;;;;;;;3.75;100.00;99666.66;5054447;28;1995;-65
2023/04/24 03:48:59;;;;;;;;;;;;;;;3.79;100.00;99668.31;5054570;28;806;-64
2023/04/24 03:51:27;;;;;;;;;;;;;;;3.88;100.00;99662.63;5054413;28;850;-65
2023/04/24 03:53:54;;;;;;;;;;;;;;;4.09;100.00;99659.50;5054419;28;896;-64
2023/04/24 03:56:20;;;;;;;;;;;;;;;4.29;100.00;99663.81;5054406;28;870;-65
2023/04/24 03:58:46;;;;;;;;;;;;;;;4.48;100.00;99670.38;5054362;28;844;-64
2023/04/24 04:01:13;;;;;;;;;;;;;;;4.51;100.00;99672.41;5054328;28;870;-66
2023/04/24 04:03:39;;;;;;;;;;;;;;;4.51;100.00;99680.59;5054171;28;881;-66
2023/04/24 04:06:05;;;;;;;;;;;;;;;4.54;100.00;99685.34;5054186;28;1898;-65
2023/04/24 04:08:31;;;;;;;;;;;;;;;4.64;100.00;99676.53;5054408;28;900;-66
2023/04/24 04:10:58;;;;;;;;;;;;;;;4.73;100.00;99680.97;5049266;28;1338;-66
2023/04/24 04:13:25;;;;;;;;;;;;;;;4.83;100.00;99683.09;5054064;28;842;-66
2023/04/24 04:15:51;;;;;;;;;;;;;;;4.96;100.00;99686.44;5054092;28;914;-67
2023/04/24 04:18:18;;;;;;;;;;;;;;;5.08;100.00;99681.53;5053951;28;807;-64
2023/04/24 04:20:44;;;;;;;;;;;;;;;5.23;100.00;99685.28;5053838;28;889;-67
2023/04/24 04:23:11;;;;;;;;;;;;;;;5.38;100.00;99685.50;5054147;28;787;-66
2023/04/24 04:25:36;;;;;;;;;;;;;;;5.51;100.00;99684.09;5053824;28;1918;-65
2023/04/24 04:28:03;;;;;;;;;;;;;;;5.65;100.00;99683.50;5053798;28;803;-66
2023/04/24 04:30:31;;;;;;;;;;;;;;;5.76;100.00;99681.69;5052819;28;869;-67
2023/04/24 04:32:59;;;;;;;;;;;;;;;5.90;100.00;99690.09;5053697;28;823;-66
2023/04/24 04:35:25;;;;;;;;;;;;;;;6.10;100.00;99687.19;5053659;28;854;-67
2023/04/24 04:37:59;;;;;;;;;;;;;;;6.29;100.00;99686.22;5053652;28;866;-66
2023/04/24 04:40:27;;;;;;;;;;;;;;;6.53;100.00;99684.91;5053570;28;815;-67
2023/04/24 04:42:58;;;;;;;;;;;;;;;6.78;100.00;99685.13;5053512;28;806;-66
2023/04/24 04:45:27;;;;;;;;;;;;;;;7.00;100.00;99683.34;5053395;28;1957;-65
2023/04/24 04:47:54;;;;;;;;;;;;;;;7.24;100.00;99681.16;5053741;28;823;-66
2023/04/24 04:50:22;;;;;;;;;;;;;;;7.42;100.00;99682.03;5053251;28;893;-66
2023/04/24 04:52:49;;;;;;;;;;;;;;;7.62;100.00;99681.75;5035467;28;1221;-65
2023/04/24 04:55:16;;;;;;;;;;;;;;;7.86;100.00;99691.31;5053241;28;919;-66
2023/04/24 04:57:43;;;;;;;;;;;;;;;8.18;100.00;99691.44;5053265;28;814;-65
2023/04/24 05:00:10;;;;;;;;;;;;;;;8.52;100.00;99688.41;5053164;28;858;-65
2023/04/24 05:02:36;;;;;;;;;;;;;;;8.75;100.00;99685.28;5053146;28;810;-66
2023/04/24 05:05:06;;;;;;;;;;;;;;;8.87;100.00;99681.31;5053084;28;1886;-65
2023/04/24 05:07:32;;;;;;;;;;;;;;;8.98;100.00;99687.63;5053031;28;898;-66
2023/04/24 05:09:59;;;;;;;;;;;;;;;9.17;100.00;99687.25;5052814;28;1399;-66
2023/04/24 05:12:26;;;;;;;;;;;;;;;9.38;100.00;99689.16;5052960;28;819;-66
2023/04/24 05:14:53;;;;;;;;;;;;;;;9.58;100.00;99688.72;5052902;28;866;-66
2023/04/24 05:17:27;;;;;;;;;;;;;;;9.74;100.00;99686.31;5052843;28;850;-65
2023/04/24 05:19:54;;;;;;;;;;;;;;;9.89;100.00;99689.81;5052754;28;834;-66
2023/04/24 05:22:21;;;;;;;;;;;;;;;10.03;100.00;99677.91;5052681;28;876;-67
2023/04/24 05:24:47;;;;;;;;;;;;;;;10.26;100.00;99690.41;5052723;28;1910;-67
2023/04/24 05:27:14;;;;;;;;;;;;;;;10.47;100.00;99681.25;5052723;28;826;-66
2023/04/24 05:29:40;;;;;;;;;;;;;;;10.66;100.00;99679.94;5052964;28;826;-66
2023/04/24 05:32:07;;;;;;;;;;;;;;;10.89;100.00;99679.38;5052866;28;841;-66
2023/04/24 05:34:33;;;;;;;;;;;;;;;11.12;100.00;99671.28;5052539;28;893;-65
2023/04/24 05:36:59;;;;;;;;;;;;;;;11.33;100.00;99672.25;5052570;28;815;-66
2023/04/24 05:39:27;;;;;;;;;;;;;;;11.52;100.00;99679.97;5052720;28;822;-66
2023/04/24 05:41:53;;;;;;;;;;;;;;;11.73;100.00;99672.59;5052265;28;893;-65
2023/04/24 05:44:20;;;;;;;;;;;;;;;11.92;100.00;99672.00;5052580;28;877;-66
2023/04/24 05:46:46;;;;;;;;;;;;;;;12.09;100.00;99672.19;5052518;28;1987;-66
2023/04/24 05:49:13;;;;;;;;;;;;;;;12.41;100.00;99666.22;5052413;28;802;-65
2023/04/24 05:51:40;;;;;;;;;;;;;;;12.66;100.00;99669.38;5052997;28;806;-66
2023/04/24 05:54:06;;;;;;;;;;;;;;;12.88;100.00;99669.03;5052908;28;894;-66
2023/04/24 05:56:32;;;;;;;;;;;;;;;13.36;100.00;99673.41;5052449;28;1206;-65
2023/04/24 05:58:58;;;;;;;;;;;;;;;14.17;100.00;99668.63;5051992;28;883;-66
2023/04/24 06:01:25;;;;;;;;;;;;;;;15.15;100.00;99674.28;5051991;28;878;-66
2023/04/24 06:03:52;;;;;;;;;;;;;;;16.12;100.00;99672.44;5051922;28;827;-66
2023/04/24 06:06:19;;;;;;;;;;;;;;;17.09;100.00;99677.78;5051833;28;1890;-66
2023/04/24 06:08:46;;;;;;;;;;;;;;;17.80;100.00;99675.75;5052198;28;978;-66
2023/04/24 06:11:12;;;;;;;;;;;;;;;18.12;100.00;99671.78;5051645;28;1386;-67
2023/04/24 06:13:39;;;;;;;;;;;;;;;18.45;100.00;99686.06;5051836;28;901;-66
2023/04/24 06:16:05;;;;;;;;;;;;;;;18.43;100.00;99673.78;5051737;28;874;-66
2023/04/24 06:18:33;;;;;;;;;;;;;;;18.71;100.00;99680.25;5051673;28;807;-66
2023/04/24 06:21:00;;;;;;;;;;;;;;;18.75;100.00;99673.31;5051708;28;823;-66
2023/04/24 06:23:26;;;;;;;;;;;;;;;18.28;100.00;99667.97;5051681;28;865;-66
2023/04/24 06:25:53;;;;;;;;;;;;;;;17.88;100.00;99677.84;5051518;28;1910;-67
2023/04/24 06:28:20;;;;;;;;;;;;;;;18.04;100.00;99670.50;5051631;28;878;-67
2023/04/24 06:30:45;;;;;;;;;;;;;;;18.33;100.00;99678.56;5051567;28;802;-66
2023/04/24 06:33:12;;;;;;;;;;;;;;;18.30;100.00;99685.06;5051508;28;906;-66
2023/04/24 06:35:38;;;;;;;;;;;;;;;18.08;100.00;99673.94;5051819;28;917;-66
2023/04/24 06:38:05;;;;;;;;;;;;;;;17.45;100.00;99675.78;5051462;28;889;-67
2023/04/24 06:40:31;;;;;;;;;;;;;;;16.88;100.00;99679.28;5051556;28;886;-66
2023/04/24 06:42:59;;;;;;;;;;;;;;;16.46;100.00;99675.81;5051365;28;873;-66
2023/04/24 06:45:26;;;;;;;;;;;;;;;16.18;100.00;99683.03;5051346;28;1874;-66
2023/04/24 06:47:53;;;;;;;;;;;;;;;15.96;100.00;99682.88;5033354;28;1169;-67
2023/04/24 06:50:20;;;;;;;;;;;;;;;16.23;100.00;99676.91;5051663;28;874;-67
2023/04/24 06:52:47;;;;;;;;;;;;;;;17.19;100.00;99677.88;5034088;28;1560;-66
2023/04/24 06:55:12;;;;;;;;;;;;;;;18.57;100.00;99676.81;5057740;28;874;-66
2023/04/24 06:57:39;;;;;;;;;;;;;;;19.77;100.00;99677.03;5057916;28;850;-66
2023/04/24 07:00:06;;;;;;;;;;;;;;;20.82;100.00;99670.16;5057963;28;811;-67
2023/04/24 07:02:33;;;;;;;;;;;;;;;21.65;100.00;99671.63;5057940;28;842;-68
2023/04/24 07:05:01;;;;;;;;;;;;;;;21.88;100.00;99672.84;5057746;28;1882;-67
2023/04/24 07:07:27;;;;;;;;;;;;;;;22.34;100.00;99673.16;5057826;28;1012;-69
2023/04/24 07:09:56;;;;;;;;;;;;;;;22.41;100.00;99675.56;5057629;28;1313;-68
2023/04/24 07:12:22;;;;;;;;;;;;;;;22.60;100.00;99676.13;5057830;28;842;-67
2023/04/24 07:14:50;;;;;;;;;;;;;;;22.55;100.00;99670.38;5057895;28;873;-68
2023/04/24 07:17:17;;;;;;;;;;;;;;;22.62;100.00;99676.41;5057723;28;826;-66
2023/04/24 07:19:43;;;;;;;;;;;;;;;22.70;100.00;99678.81;5057776;28;854;-64
2023/04/24 07:22:11;;;;;;;;;;;;;;;22.93;100.00;99680.66;5057760;28;811;-64
2023/04/24 07:24:37;;;;;;;;;;;;;;;23.00;95.99;99685.94;5057683;28;1906;-65
2023/04/24 07:27:04;;;;;;;;;;;;;;;22.35;100.00;99685.19;5057666;28;874;-65
2023/04/24 07:29:33;;;;;;;;;;;;;;;22.42;100.00;99679.94;5039677;28;1378;-65
2023/04/24 07:32:00;;;;;;;;;;;;;;;22.55;100.00;99685.25;5056402;28;1298;-65
2023/04/24 07:34:26;;;;;;;;;;;;;;;22.67;100.00;99671.34;5039568;28;1409;-64
2023/04/24 07:36:52;;;;;;;;;;;;;;;22.80;100.00;99668.97;5057603;28;819;-64
2023/04/24 07:39:19;;;;;;;;;;;;;;;22.79;100.00;99673.84;5057568;28;814;-64
2023/04/24 07:41:46;;;;;;;;;;;;;;;22.64;95.28;99675.91;5057571;28;862;-65
2023/04/24 07:44:13;;;;;;;;;;;;;;;22.78;97.53;99668.69;5057588;28;818;-64
2023/04/24 07:46:40;;;;;;;;;;;;;;;22.86;100.00;99667.00;5057410;28;1960;-64
2023/04/24 07:49:06;;;;;;;;;;;;;;;23.08;100.00;99662.97;5057688;28;834;-65
2023/04/24 07:51:37;;;;;;;;;;;;;;;23.34;100.00;99669.47;5057540;28;894;-65
2023/04/24 07:54:07;;;;;;;;;;;;;;;23.30;100.00;99670.91;5057823;28;846;-65
2023/04/24 07:56:34;;;;;;;;;;;;;;;23.31;100.00;99675.31;5057396;28;878;-67
2023/04/24 07:59:01;;;;;;;;;;;;;;;23.34;100.00;99674.31;5039477;28;1284;-66
2023/04/24 08:01:27;;;;;;;;;;;;;;;23.10;99.42;99675.28;5057338;28;826;-67
2023/04/24 08:03:55;;;;;;;;;;;;;;;22.93;89.25;99677.84;5057594;28;881;-67
2023/04/24 08:06:22;;;;;;;;;;;;;;;22.80;100.00;99683.81;5054158;28;1951;-68
2023/04/24 08:08:48;;;;;;;;;;;;;;;22.86;92.87;99677.50;5054612;28;1021;-68
2023/04/24 08:11:15;;;;;;;;;;;;;;;22.80;99.06;99672.56;5053942;28;1213;-68
2023/04/24 08:13:41;;;;;;;;;;;;;;;23.22;92.88;99677.00;5054085;28;835;-67
2023/04/24 08:16:08;;;;;;;;;;;;;;;23.02;83.16;99677.78;5053910;28;874;-67
2023/04/24 08:18:35;;;;;;;;;;;;;;;22.66;87.74;99681.03;5053892;28;913;-67
2023/04/24 08:21:02;;;;;;;;;;;;;;;22.46;73.58;99676.13;5053997;28;878;-67
2023/04/24 08:23:29;;;;;;;;;;;;;;;22.06;73.81;99681.06;5053872;28;838;-65
2023/04/24 08:25:57;;;;;;;;;;;;;;;22.11;72.27;99669.16;5053757;28;1913;-66
2023/04/24 08:28:23;;;;;;;;;;;;;;;22.31;79.73;99667.72;5053742;28;796;-66
2023/04/24 08:30:54;;;;;;;;;;;;;;;22.27;77.50;99667.91;5053830;28;799;-66
2023/04/24 08:33:21;;;;;;;;;;;;;;;22.57;74.63;99660.19;5054093;28;866;-66
2023/04/24 08:35:48;;;;;;;;;;;;;;;22.67;78.35;99654.44;5053845;28;814;-68
2023/04/24 08:38:15;;;;;;;;;;;;;;;22.52;68.86;99662.94;5053635;28;890;-67
2023/04/24 08:40:41;;;;;;;;;;;;;;;22.53;81.90;99654.00;5053846;28;846;-67
2023/04/24 08:43:08;;;;;;;;;;;;;;;22.55;68.21;99650.66;5053526;28;818;-66
2023/04/24 08:45:34;;;;;;;;;;;;;;;22.20;68.64;99651.38;5053306;28;1957;-67
2023/04/24 08:48:02;;;;;;;;;;;;;;;22.01;66.41;99650.81;5053429;28;872;-65
2023/04/24 08:50:29;;;;;;;;;;;;;;;22.03;79.49;99645.47;5053406;28;803;-66
2023/04/24 08:52:56;;;;;;;;;;;;;;;22.50;78.33;99629.63;5053387;28;827;-66
2023/04/24 08:55:24;;;;;;;;;;;;;;;22.36;58.76;99634.03;5053320;28;815;-64
2023/04/24 08:57:52;;;;;;;;;;;;;;;21.72;59.88;99632.69;5053400;28;834;-67
2023/04/24 09:00:20;;;;;;;;;;;;;;;21.49;64.12;99631.47;5053510;28;818;-67
2023/04/24 09:02:47;;;;;;;;;;;;;;;21.69;68.24;99636.44;5053379;28;854;-67
2023/04/24 09:05:13;;;;;;;;;;;;;;;21.85;73.83;99640.03;5053379;28;1949;-68
2023/04/24 09:07:42;;;;;;;;;;;;;;;22.09;74.24;99637.91;5053388;28;992;-68
2023/04/24 09:10:09;;;;;;;;;;;;;;;22.20;70.44;99637.31;5052940;28;1375;-67
2023/04/24 09:12:36;;;;;;;;;;;;;;;21.75;59.42;99628.88;5053031;28;897;-66
2023/04/24 09:15:06;;;;;;;;;;;;;;;21.39;67.21;99629.97;5052936;28;870;-67
2023/04/24 09:17:34;;;;;;;;;;;;;;;21.62;73.82;99625.59;5052369;28;831;-67
2023/04/24 09:20:00;;;;;;;;;;;;;;;21.80;69.35;99622.56;5052867;28;819;-67
2023/04/24 09:22:29;;;;;;;;;;;;;;;21.57;74.49;99612.97;5052735;28;839;-67
2023/04/24 09:25:05;;;;;;;;;;;;;;;21.53;62.98;99615.19;5052941;28;1922;-67
2023/04/24 09:27:32;;;;;;;;;;;;;;;21.36;58.82;99616.88;5052871;28;894;-67
2023/04/24 09:29:59;;;;;;;;;;;;;;;20.98;67.83;99619.19;5052663;28;815;-67
2023/04/24 09:32:25;;;;;;;;;;;;;;;20.96;71.36;99609.69;5052511;28;819;-67
2023/04/24 09:35:11;;;;;;;;;;;;;;;20.96;63.98;99606.88;5034602;28;1169;-66
2023/04/24 09:37:41;;;;;;;;;;;;;;;20.86;72.17;99608.97;5052533;28;826;-67
2023/04/24 10:08:58;;;;;;;;;;;;;;;21.23;62.69;99579.81;5996413;22;1663;-69
2023/04/24 10:11:27;;;;;;;;;;;;;;;21.36;59.27;99571.91;5032071;28;814;-67
2023/04/24 10:13:53;;;;;;;;;;;;;;;21.49;56.50;99572.44;5031962;28;904;-66
2023/04/24 10:16:21;;;;;;;;;;;;;;;21.59;59.78;99573.91;5031973;28;943;-67
2023/04/24 10:18:48;;;;;;;;;;;;;;;21.47;55.66;99579.81;5031903;28;798;-68
2023/04/24 10:21:18;;;;;;;;;;;;;;;21.13;61.47;99576.31;5031832;28;846;-68
2023/04/24 10:23:46;;;;;;;;;;;;;;;21.21;55.65;99572.66;5031716;28;866;-67
2023/04/24 10:26:17;;;;;;;;;;;;;;;21.30;57.02;99568.97;5032413;28;1910;-67
2023/04/24 10:28:47;;;;;;;;;;;;;;;21.62;59.36;99563.72;5031019;28;862;-67
2023/04/24 10:31:15;;;;;;;;;;;;;;;22.10;57.29;99560.66;5031647;28;806;-68
2023/04/24 10:33:43;;;;;;;;;;;;;;;22.22;56.22;99553.16;5031791;28;791;-67
2023/04/24 10:36:10;;;;;;;;;;;;;;;22.45;56.90;99556.31;5031770;28;846;-67
2023/04/24 10:38:39;;;;;;;;;;;;;;;22.55;56.71;99557.72;5031478;28;869;-68
2023/04/24 10:41:15;;;;;;;;;;;;;;;22.68;52.99;99557.38;5031626;28;838;-67
2023/04/24 10:43:42;;;;;;;;;;;;;;;22.55;54.25;99552.91;5031530;28;905;-68
2023/04/24 10:46:10;;;;;;;;;;;;;;;22.18;53.64;99547.72;5031459;28;1949;-67
2023/04/24 10:48:41;;;;;;;;;;;;;;;21.64;55.20;99547.13;5031913;28;819;-68
2023/04/24 10:51:11;;;;;;;;;;;;;;;20.80;54.32;99554.72;5031670;28;874;-67
2023/04/24 10:53:37;;;;;;;;;;;;;;;20.47;58.64;99546.34;5031432;28;858;-67
2023/04/24 10:56:05;;;;;;;;;;;;;;;21.28;57.72;99545.44;5031526;28;811;-67
2023/04/24 10:58:52;;;;;;;;;;;;;;;21.26;56.68;99545.91;5031461;28;886;-68
2023/04/24 11:01:32;;;;;;;;;;;;;;;21.81;57.66;99539.75;5031317;28;1479;-69
2023/04/24 11:04:00;;;;;;;;;;;;;;;22.43;57.74;99535.06;5031180;28;819;-68
2023/04/24 11:06:34;;;;;;;;;;;;;;;21.75;56.25;99527.63;5031374;28;1987;-67
2023/04/24 11:09:08;;;;;;;;;;;;;;;21.27;57.30;99543.88;5032970;28;1394;-68
2023/04/24 11:11:36;;;;;;;;;;;;;;;21.05;57.47;99533.00;5051178;28;826;-68
2023/04/24 11:14:04;;;;;;;;;;;;;;;20.76;60.18;99535.25;5051187;28;826;-68
2023/04/24 11:16:44;;;;;;;;;;;;;;;20.53;59.79;99539.59;5051116;28;844;-69
2023/04/24 11:19:16;;;;;;;;;;;;;;;20.56;62.78;99538.63;5051135;28;830;-67
2023/04/24 11:21:43;;;;;;;;;;;;;;;20.40;60.45;99531.41;5051120;28;806;-67
2023/04/24 11:24:28;;;;;;;;;;;;;;;20.21;58.87;99537.59;5051035;28;862;-67
2023/04/24 11:26:57;;;;;;;;;;;;;;;19.85;59.58;99531.66;5051091;28;2001;-69
2023/04/24 11:29:38;;;;;;;;;;;;;;;20.05;60.18;99531.09;5051030;28;846;-67
2023/04/24 11:32:23;;;;;;;;;;;;;;;20.37;58.82;99525.94;5051071;28;810;-67
2023/04/24 11:34:50;;;;;;;;;;;;;;;20.46;57.25;99525.91;5051293;28;814;-65
2023/04/24 11:37:17;;;;;;;;;;;;;;;20.46;57.23;99513.88;5051153;28;861;-65
2023/04/24 11:39:44;;;;;;;;;;;;;;;20.72;59.24;99517.03;5052328;28;852;-68
2023/04/24 11:42:13;;;;;;;;;;;;;;;20.55;56.50;99506.19;5055187;28;822;-66
2023/04/24 11:44:41;;;;;;;;;;;;;;;20.48;55.97;99517.00;5054708;28;869;-66
2023/04/24 11:47:08;;;;;;;;;;;;;;;20.53;56.74;99516.34;5054521;28;1965;-67
2023/04/24 11:49:37;;;;;;;;;;;;;;;20.27;57.08;99510.41;5054580;28;798;-67
2023/04/24 11:52:04;;;;;;;;;;;;;;;20.10;58.87;99512.84;5054542;28;900;-68
2023/04/24 11:54:31;;;;;;;;;;;;;;;19.84;59.58;99509.69;5054534;28;881;-68
2023/04/24 11:56:58;;;;;;;;;;;;;;;19.30;57.93;99504.53;5054688;28;881;-66
2023/04/24 11:59:24;;;;;;;;;;;;;;;19.00;61.77;99513.91;5054456;28;814;-67
2023/04/24 12:01:51;;;;;;;;;;;;;;;18.94;61.36;99511.72;5054361;28;944;-67
2023/04/24 12:04:19;;;;;;;;;;;;;;;19.09;61.77;99505.50;5054344;28;798;-67
2023/04/24 12:07:04;;;;;;;;;;;;;;;19.12;61.05;99508.13;5054166;28;1894;-67
2023/04/24 12:09:45;;;;;;;;;;;;;;;19.29;61.90;99500.19;5054187;28;1078;-66
2023/04/24 12:12:13;;;;;;;;;;;;;;;19.27;62.98;99496.31;5054164;28;901;-67
2023/04/24 12:14:48;;;;;;;;;;;;;;;19.29;62.82;99491.00;5054180;28;861;-67
2023/04/24 12:17:16;;;;;;;;;;;;;;;19.22;66.12;99494.13;5054053;28;814;-67
2023/04/24 12:19:46;;;;;;;;;;;;;;;18.89;62.08;99494.78;5054096;28;983;-67
2023/04/24 12:22:13;;;;;;;;;;;;;;;18.52;62.31;99494.72;5054022;28;818;-67
2023/04/24 12:24:58;;;;;;;;;;;;;;;18.32;62.63;99490.34;5053997;28;802;-67
2023/04/24 12:27:25;;;;;;;;;;;;;;;18.19;61.66;99488.91;5053981;28;877;-67
2023/04/24 12:29:53;;;;;;;;;;;;;;;18.16;61.34;99485.81;5053797;28;1041;-67
2023/04/24 12:32:20;;;;;;;;;;;;;;;18.19;60.78;99483.31;5053885;28;798;-67
2023/04/24 12:34:46;;;;;;;;;;;;;;;18.13;59.94;99481.13;5053746;28;894;-66
2023/04/24 12:37:13;;;;;;;;;;;;;;;18.06;59.86;99475.84;5053672;28;843;-67
2023/04/24 12:39:44;;;;;;;;;;;;;;;17.98;59.02;99468.97;5053632;28;815;-67
2023/04/24 12:42:11;;;;;;;;;;;;;;;17.98;59.81;99466.16;5053659;28;819;-67
2023/04/24 12:44:38;;;;;;;;;;;;;;;18.14;60.46;99465.91;5053468;28;963;-67
2023/04/24 12:47:15;;;;;;;;;;;;;;;18.38;58.79;99459.75;5053559;28;1910;-67
2023/04/24 12:49:42;;;;;;;;;;;;;;;19.01;59.02;99454.63;5035832;28;1346;-68
2023/04/24 12:52:09;;;;;;;;;;;;;;;19.57;59.05;99458.06;5052485;28;909;-67
2023/04/24 12:54:36;;;;;;;;;;;;;;;19.72;57.78;99452.59;5053393;28;838;-67
2023/04/24 12:57:01;;;;;;;;;;;;;;;19.71;57.61;99445.41;5053311;28;811;-66
2023/04/24 12:59:27;;;;;;;;;;;;;;;19.91;58.60;99450.47;5053281;28;1058;-67
2023/04/24 13:01:55;;;;;;;;;;;;;;;20.44;56.79;99447.03;5053255;28;909;-67
2023/04/24 13:04:21;;;;;;;;;;;;;;;21.98;54.67;99441.53;5035353;28;1176;-67
2023/04/24 13:06:48;;;;;;;;;;;;;;;22.21;51.81;99439.81;5052949;28;1899;-67
2023/04/24 13:09:14;;;;;;;;;;;;;;;21.76;47.74;99436.38;5053096;28;1205;-67
2023/04/24 13:11:41;;;;;;;;;;;;;;;21.47;48.58;99433.63;5053039;28;1022;-67
2023/04/24 13:14:07;;;;;;;;;;;;;;;22.00;49.34;99435.44;5053000;28;881;-67
2023/04/24 13:16:33;;;;;;;;;;;;;;;23.76;44.64;99438.84;5053049;28;850;-67
2023/04/24 13:19:00;;;;;;;;;;;;;;;24.88;40.95;99427.28;5052906;28;886;-68
2023/04/24 13:21:26;;;;;;;;;;;;;;;26.25;40.86;99438.78;5052872;28;826;-68
2023/04/24 13:23:52;;;;;;;;;;;;;;;26.21;36.21;99426.97;5052851;28;818;-68
2023/04/24 13:26:19;;;;;;;;;;;;;;;25.78;36.09;99424.47;5052704;28;1914;-68
2023/04/24 13:28:46;;;;;;;;;;;;;;;25.12;37.94;99423.97;5052706;28;862;-68
2023/04/24 13:31:13;;;;;;;;;;;;;;;25.17;38.39;99419.59;5052721;28;869;-68
2023/04/24 13:33:40;;;;;;;;;;;;;;;25.31;38.01;99417.84;5052596;28;880;-67